Time;durP1;ratioP1;P1;durP2;ratioP2;P2;SDS_P1;SDS_P2;PMS_P1;PMS_P2;Temp;Humidity;BMP_temperature;BMP_pressure;BME280_temperature;BME280_humidity;BME280_pressure;Samples;Min_cycle;Max_cycle;Signal;HPM_P1;HPM_P2
2021/01/16 00:00:32;;;;;;;43.57;26.07;;;-2.30;99.90;;;;;;5092938;28;20027;-93
2021/01/16 00:02:58;;;;;;;45.88;28.10;;;-2.30;99.90;;;;;;5092854;28;20460;-93
2021/01/16 00:05:26;;;;;;;47.07;26.57;;;-2.30;99.90;;;;;;5093911;28;20032;-93
2021/01/16 00:08:05;;;;;;;43.93;25.97;;;-2.30;99.90;;;;;;5092795;28;20122;-94
2021/01/16 00:10:32;;;;;;;46.93;25.77;;;-2.30;99.90;;;;;;5092833;28;20028;-93
2021/01/16 00:12:58;;;;;;;44.23;25.73;;;-2.40;99.90;;;;;;5092824;28;20024;-93
2021/01/16 00:15:24;;;;;;;43.77;26.77;;;-2.40;99.90;;;;;;5092598;28;20028;-93
2021/01/16 00:18:04;;;;;;;44.73;26.87;;;-2.40;99.90;;;;;;5094056;28;20081;-94
2021/01/16 00:20:34;;;;;;;45.53;26.10;;;-2.30;99.90;;;;;;5092539;28;20027;-93
2021/01/16 00:23:00;;;;;;;41.23;25.20;;;-2.30;99.90;;;;;;5092652;28;20024;-93
2021/01/16 00:25:26;;;;;;;42.90;27.17;;;-2.30;99.90;;;;;;5092668;28;20412;-93
2021/01/16 00:27:53;;;;;;;40.87;24.87;;;-2.30;99.90;;;;;;5092461;28;20028;-93
2021/01/16 00:30:21;;;;;;;45.40;26.07;;;-2.30;99.90;;;;;;5092352;28;20035;-93
2021/01/16 00:32:47;;;;;;;40.73;24.73;;;-2.30;99.90;;;;;;5092466;28;20020;-93
2021/01/16 00:35:15;;;;;;;43.87;24.67;;;-2.30;99.90;;;;;;5092513;28;20016;-93
2021/01/16 00:37:42;;;;;;;43.03;25.87;;;-2.30;99.90;;;;;;5092588;28;20020;-93
2021/01/16 00:40:09;;;;;;;42.83;25.83;;;-2.30;99.90;;;;;;5092137;28;20389;-94
2021/01/16 00:42:39;;;;;;;46.23;26.50;;;-2.30;99.90;;;;;;5092408;28;20106;-93
2021/01/16 00:45:06;;;;;;;41.47;24.53;;;-2.30;99.90;;;;;;5093534;28;20088;-94
2021/01/16 00:47:37;;;;;;;44.40;25.63;;;-2.30;99.90;;;;;;5092530;28;20358;-93
2021/01/16 00:50:06;;;;;;;44.23;26.50;;;-2.30;99.90;;;;;;5092358;28;20055;-92
2021/01/16 00:52:31;;;;;;;44.20;25.60;;;-2.30;99.90;;;;;;5092654;28;20427;-93
2021/01/16 00:54:57;;;;;;;41.70;24.63;;;-2.30;99.90;;;;;;5092155;28;20020;-93
2021/01/16 00:57:23;;;;;;;39.57;24.63;;;-2.30;99.90;;;;;;5092067;28;20472;-93
2021/01/16 00:59:48;;;;;;;43.13;25.73;;;-2.30;99.90;;;;;;5092310;28;20028;-93
2021/01/16 01:02:14;;;;;;;45.97;25.77;;;-2.30;99.90;;;;;;5092129;28;20074;-93
2021/01/16 01:04:39;;;;;;;45.30;26.37;;;-2.40;99.90;;;;;;5092192;28;20020;-93
2021/01/16 01:07:09;;;;;;;43.60;25.17;;;-2.40;99.90;;;;;;5092210;28;20047;-93
2021/01/16 01:09:35;;;;;;;41.97;26.13;;;-2.30;99.90;;;;;;5093375;28;20032;-93
2021/01/16 01:12:01;;;;;;;44.43;25.97;;;-2.30;99.90;;;;;;5092054;28;20028;-93
2021/01/16 01:14:26;;;;;;;44.27;26.43;;;-2.30;99.90;;;;;;5092092;28;20381;-93
2021/01/16 01:16:52;;;;;;;48.93;27.00;;;-2.30;99.90;;;;;;5092449;28;20032;-93
2021/01/16 01:19:17;;;;;;;44.53;26.23;;;-2.40;99.90;;;;;;5095921;28;20032;-94
2021/01/16 01:21:43;;;;;;;44.37;26.00;;;-2.40;99.90;;;;;;5095994;28;20036;-93
2021/01/16 01:24:09;;;;;;;42.40;25.50;;;-2.40;99.90;;;;;;5095979;28;20123;-93
2021/01/16 01:26:37;;;;;;;41.53;26.50;;;-2.40;99.90;;;;;;5096080;28;20020;-93
2021/01/16 01:29:03;;;;;;;44.37;26.13;;;-2.40;99.90;;;;;;5095975;28;20031;-93
2021/01/16 01:31:29;;;;;;;42.27;26.10;;;-2.40;99.90;;;;;;5095631;28;20123;-93
2021/01/16 01:33:54;;;;;;;45.60;26.50;;;-2.50;99.90;;;;;;5095668;28;20038;-94
2021/01/16 01:36:20;;;;;;;43.00;25.87;;;-2.40;99.90;;;;;;5095619;28;20492;-92
2021/01/16 01:38:46;;;;;;;40.57;24.90;;;-2.40;99.90;;;;;;5095944;28;20059;-93
2021/01/16 01:41:11;;;;;;;43.03;25.33;;;-2.40;99.90;;;;;;5098871;28;20476;-93
2021/01/16 01:43:37;;;;;;;40.03;24.30;;;-2.40;99.90;;;;;;5104534;28;20131;-94
2021/01/16 01:46:03;;;;;;;42.23;25.87;;;-2.40;99.90;;;;;;5105002;28;20480;-93
2021/01/16 01:48:29;;;;;;;40.43;24.90;;;-2.40;99.90;;;;;;5106116;28;20024;-93
2021/01/16 01:50:55;;;;;;;42.20;26.00;;;-2.40;99.90;;;;;;5103952;28;20094;-93
2021/01/16 01:53:22;;;;;;;40.67;24.50;;;-2.40;99.90;;;;;;5097660;28;20059;-93
2021/01/16 01:55:54;;;;;;;41.10;25.00;;;-2.40;99.90;;;;;;5096074;28;20464;-94
2021/01/16 01:58:23;;;;;;;42.03;25.03;;;-2.40;99.90;;;;;;5095350;28;20044;-93
2021/01/16 02:00:52;;;;;;;44.97;25.17;;;-2.50;99.90;;;;;;5095188;28;20024;-94
2021/01/16 02:03:21;;;;;;;45.20;26.77;;;-2.40;99.90;;;;;;5095390;28;20111;-93
2021/01/16 02:05:47;;;;;;;37.90;24.33;;;-2.40;99.90;;;;;;5095069;28;20030;-94
2021/01/16 02:08:13;;;;;;;39.77;24.37;;;-2.40;99.90;;;;;;5095132;28;20024;-94
2021/01/16 02:10:38;;;;;;;39.77;23.93;;;-2.40;99.90;;;;;;5095163;28;20457;-93
2021/01/16 02:13:04;;;;;;;40.83;24.27;;;-2.40;99.90;;;;;;5094854;28;20396;-93
2021/01/16 02:16:09;;;;;;;36.97;23.37;;;-2.40;99.90;;;;;;5095293;28;20077;-94
2021/01/16 02:18:38;;;;;;;43.07;24.43;;;-2.40;99.90;;;;;;5111727;28;20150;-94
2021/01/16 02:21:06;;;;;;;38.63;23.30;;;-2.40;99.90;;;;;;5094680;28;20388;-94
2021/01/16 02:23:36;;;;;;;35.07;22.83;;;-2.30;99.90;;;;;;5094789;28;20037;-93
2021/01/16 02:26:23;;;;;;;38.57;23.67;;;-2.40;99.90;;;;;;5094784;28;20158;-94
2021/01/16 02:28:51;;;;;;;38.83;23.93;;;-2.40;99.90;;;;;;5094778;28;20035;-94
2021/01/16 02:31:17;;;;;;;41.77;23.77;;;-2.40;99.90;;;;;;5094716;28;20044;-94
2021/01/16 02:33:45;;;;;;;39.37;24.37;;;-2.30;99.90;;;;;;5094427;28;20031;-94
2021/01/16 02:36:35;;;;;;;40.23;24.50;;;-2.40;99.90;;;;;;5094525;28;20427;-94
2021/01/16 02:39:19;;;;;;;39.23;24.00;;;-2.30;99.90;;;;;;5094681;28;20024;-94
2021/01/16 02:42:09;;;;;;;40.67;24.90;;;-2.30;99.90;;;;;;5094409;28;20591;-94
2021/01/16 02:44:37;;;;;;;41.13;25.17;;;-2.30;99.90;;;;;;5094432;28;20024;-94
2021/01/16 02:47:13;;;;;;;39.83;24.00;;;-2.40;99.90;;;;;;5094526;28;20052;-93
2021/01/16 02:50:06;;;;;;;40.83;24.67;;;-2.30;99.90;;;;;;5094274;28;20440;-93
2021/01/16 02:52:39;;;;;;;39.70;23.83;;;-2.30;99.90;;;;;;5090729;28;20028;-94
2021/01/16 02:55:06;;;;;;;43.60;24.60;;;-2.30;99.90;;;;;;5094175;28;20038;-94
2021/01/16 02:57:32;;;;;;;40.17;23.03;;;-2.30;99.90;;;;;;5093892;28;20408;-94
2021/01/16 02:59:57;;;;;;;38.30;23.63;;;-2.30;99.90;;;;;;5094113;28;20024;-94
2021/01/16 03:02:23;;;;;;;37.83;23.20;;;-2.40;99.90;;;;;;5093825;28;20031;-94
2021/01/16 03:04:48;;;;;;;38.67;24.43;;;-2.40;99.90;;;;;;5094022;28;20465;-94
2021/01/16 03:07:18;;;;;;;39.67;22.93;;;-2.40;99.90;;;;;;5094035;28;20047;-94
2021/01/16 03:09:44;;;;;;;40.43;24.30;;;-2.40;99.90;;;;;;5093897;28;20024;-93
2021/01/16 03:12:11;;;;;;;37.80;24.77;;;-2.40;99.90;;;;;;5094072;28;20358;-93
2021/01/16 03:14:53;;;;;;;39.40;24.70;;;-2.40;99.90;;;;;;5095129;28;20026;-94
2021/01/16 03:17:23;;;;;;;37.37;23.43;;;-2.40;99.90;;;;;;5094331;28;20028;-94
2021/01/16 03:19:49;;;;;;;40.73;24.50;;;-2.30;99.90;;;;;;5093708;28;20352;-95
2021/01/16 03:22:28;;;;;;;43.57;25.03;;;-2.30;99.90;;;;;;5093586;28;20035;-94
2021/01/16 03:24:57;;;;;;;39.03;23.87;;;-2.30;99.90;;;;;;5093956;28;20020;-94
2021/01/16 03:27:23;;;;;;;41.57;23.27;;;-2.30;99.90;;;;;;5093772;28;20020;-94
2021/01/16 03:29:50;;;;;;;39.07;24.27;;;-2.40;99.90;;;;;;5093505;28;20103;-94
2021/01/16 03:32:16;;;;;;;39.17;23.47;;;-2.30;99.90;;;;;;5093698;28;20397;-94
2021/01/16 03:34:47;;;;;;;38.73;23.47;;;-2.30;99.90;;;;;;5093555;28;20484;-94
2021/01/16 03:37:14;;;;;;;36.33;22.57;;;-2.30;99.90;;;;;;5093580;28;20020;-94
2021/01/16 03:39:40;;;;;;;39.10;22.87;;;-2.40;99.90;;;;;;5092945;28;20077;-94
2021/01/16 03:42:06;;;;;;;38.70;23.07;;;-2.40;99.90;;;;;;5093259;28;20032;-95
2021/01/16 03:44:33;;;;;;;41.93;24.80;;;-2.30;99.90;;;;;;5094524;28;20027;-94
2021/01/16 03:46:58;;;;;;;38.50;23.57;;;-2.40;99.90;;;;;;5093365;28;20523;-94
2021/01/16 03:49:24;;;;;;;39.13;23.37;;;-2.30;99.90;;;;;;5093347;28;20020;-94
2021/01/16 03:51:50;;;;;;;39.87;23.87;;;-2.40;99.90;;;;;;5093316;28;20035;-94
2021/01/16 03:54:15;;;;;;;39.43;24.67;;;-2.40;99.90;;;;;;5093079;28;20051;-94
2021/01/16 03:56:41;;;;;;;41.67;24.30;;;-2.40;99.90;;;;;;5093187;28;20048;-94
2021/01/16 03:59:08;;;;;;;41.20;24.03;;;-2.40;99.90;;;;;;5093160;28;20050;-94
2021/01/16 04:01:34;;;;;;;39.33;23.90;;;-2.40;99.90;;;;;;5092908;28;20039;-94
2021/01/16 04:04:00;;;;;;;39.80;24.33;;;-2.40;99.90;;;;;;5092998;28;20020;-94
2021/01/16 04:06:26;;;;;;;39.40;23.43;;;-2.50;99.90;;;;;;5093059;28;20024;-94
2021/01/16 04:08:52;;;;;;;42.33;25.27;;;-2.40;99.90;;;;;;5092966;28;20388;-94
2021/01/16 04:11:17;;;;;;;42.63;25.20;;;-2.40;99.90;;;;;;5093007;28;20032;-95
2021/01/16 04:13:43;;;;;;;38.10;23.23;;;-2.40;99.90;;;;;;5099917;28;20066;-94
2021/01/16 04:16:09;;;;;;;40.70;25.20;;;-2.40;99.90;;;;;;5111836;28;20043;-94
2021/01/16 04:18:35;;;;;;;37.07;23.10;;;-2.40;99.90;;;;;;5114092;28;20083;-94
2021/01/16 04:21:01;;;;;;;39.67;23.07;;;-2.40;99.90;;;;;;5113584;28;20054;-94
2021/01/16 04:23:27;;;;;;;39.10;23.83;;;-2.40;99.90;;;;;;5098662;28;20107;-94
2021/01/16 04:25:53;;;;;;;36.97;23.10;;;-2.40;99.90;;;;;;5092725;28;20421;-94
2021/01/16 04:28:18;;;;;;;36.50;22.27;;;-2.40;99.90;;;;;;5092793;28;20031;-94
2021/01/16 04:30:44;;;;;;;36.23;22.50;;;-2.30;99.90;;;;;;5092726;28;20043;-94
2021/01/16 04:33:10;;;;;;;38.63;23.40;;;-2.40;99.90;;;;;;5092575;28;20473;-95
2021/01/16 04:35:36;;;;;;;38.17;23.47;;;-2.40;99.90;;;;;;5092632;28;20031;-94
2021/01/16 04:38:02;;;;;;;43.70;24.77;;;-2.40;99.90;;;;;;5093039;28;20032;-94
2021/01/16 04:40:28;;;;;;;40.53;25.40;;;-2.40;99.90;;;;;;5092322;28;20162;-94
2021/01/16 04:42:54;;;;;;;37.53;23.63;;;-2.40;99.90;;;;;;5092364;28;20020;-94
2021/01/16 04:45:21;;;;;;;43.97;25.10;;;-2.40;99.90;;;;;;5092459;28;20027;-95
2021/01/16 04:47:48;;;;;;;39.80;25.03;;;-2.40;99.90;;;;;;5092290;28;20051;-94
2021/01/16 04:50:19;;;;;;;42.67;24.90;;;-2.30;99.90;;;;;;5092472;28;20036;-94
2021/01/16 04:52:51;;;;;;;39.70;24.40;;;-2.30;99.90;;;;;;5094342;28;20020;-93
2021/01/16 04:55:18;;;;;;;44.03;24.83;;;-2.20;99.90;;;;;;5096603;28;20016;-94
2021/01/16 04:57:44;;;;;;;40.97;25.20;;;-2.30;99.90;;;;;;5096212;28;20044;-95
2021/01/16 05:00:11;;;;;;;38.70;24.07;;;-2.30;99.90;;;;;;5096360;28;20028;-94
2021/01/16 05:02:39;;;;;;;39.10;22.67;;;-2.30;99.90;;;;;;5096750;28;20047;-94
2021/01/16 05:05:14;;;;;;;39.93;23.97;;;-2.30;99.90;;;;;;5096289;28;20032;-94
2021/01/16 05:07:40;;;;;;;38.17;23.50;;;-2.40;99.90;;;;;;5097474;28;20024;-94
2021/01/16 05:10:09;;;;;;;38.77;22.47;;;-2.40;99.90;;;;;;5096224;28;20077;-94
2021/01/16 05:12:59;;;;;;;36.80;24.20;;;-2.40;99.90;;;;;;5097430;28;20077;-94
2021/01/16 05:15:30;;;;;;;39.97;23.93;;;-2.40;99.90;;;;;;5096239;28;20130;-94
2021/01/16 05:18:06;;;;;;;42.27;23.67;;;-2.40;99.90;;;;;;5096106;28;20063;-93
2021/01/16 05:20:36;;;;;;;39.93;23.27;;;-2.40;99.90;;;;;;5097248;28;20035;-94
2021/01/16 05:23:12;;;;;;;37.37;22.87;;;-2.30;99.90;;;;;;5096086;28;20020;-94
2021/01/16 05:25:45;;;;;;;38.20;22.27;;;-2.30;99.90;;;;;;5095985;28;20085;-93
2021/01/16 05:28:15;;;;;;;39.13;22.53;;;-2.30;99.90;;;;;;5095931;28;20020;-93
2021/01/16 05:30:49;;;;;;;36.67;22.80;;;-2.30;99.90;;;;;;5095994;28;20024;-93
2021/01/16 05:33:15;;;;;;;40.90;21.67;;;-2.30;99.90;;;;;;5095790;28;20024;-94
2021/01/16 05:35:41;;;;;;;33.40;21.33;;;-2.30;99.90;;;;;;5095753;28;20024;-94
2021/01/16 05:38:07;;;;;;;35.00;22.17;;;-2.30;99.90;;;;;;5095651;28;20126;-94
2021/01/16 05:40:34;;;;;;;35.40;20.73;;;-2.30;99.90;;;;;;5096874;28;20074;-94
2021/01/16 05:43:00;;;;;;;36.07;20.67;;;-2.30;99.90;;;;;;5095753;28;20108;-94
2021/01/16 05:45:27;;;;;;;33.97;20.70;;;-2.40;99.90;;;;;;5095710;28;20024;-94
2021/01/16 05:47:53;;;;;;;36.80;21.30;;;-2.40;99.90;;;;;;5095559;28;20024;-94
2021/01/16 05:50:23;;;;;;;32.13;20.33;;;-2.40;99.90;;;;;;5095604;28;20077;-94
2021/01/16 05:52:49;;;;;;;33.23;21.07;;;-2.40;99.90;;;;;;5095430;28;20038;-94
2021/01/16 05:55:17;;;;;;;34.50;21.33;;;-2.40;99.90;;;;;;5095345;28;20024;-94
2021/01/16 05:57:47;;;;;;;35.20;21.60;;;-2.50;99.90;;;;;;5095190;28;20105;-94
2021/01/16 06:00:24;;;;;;;35.10;21.67;;;-2.50;99.90;;;;;;5095254;28;20166;-94
2021/01/16 06:02:53;;;;;;;35.03;21.17;;;-2.50;99.90;;;;;;5094826;28;20103;-94
2021/01/16 06:05:25;;;;;;;32.60;19.80;;;-2.50;99.90;;;;;;5095259;28;20560;-93
2021/01/16 06:07:55;;;;;;;32.07;20.30;;;-2.50;99.90;;;;;;5096293;28;20112;-93
2021/01/16 06:10:21;;;;;;;34.83;21.37;;;-2.50;99.90;;;;;;5095158;28;20020;-94
2021/01/16 06:12:48;;;;;;;33.70;20.37;;;-2.50;99.90;;;;;;5095150;28;20020;-94
2021/01/16 06:15:20;;;;;;;33.87;21.00;;;-2.50;99.90;;;;;;5095163;28;20016;-93
2021/01/16 06:17:48;;;;;;;32.60;20.13;;;-2.50;99.90;;;;;;5096586;28;20423;-94
2021/01/16 06:20:18;;;;;;;33.77;20.40;;;-2.50;99.90;;;;;;5094957;28;20081;-94
2021/01/16 06:22:49;;;;;;;29.83;19.60;;;-2.60;99.90;;;;;;5094999;28;20023;-94
2021/01/16 06:25:21;;;;;;;31.53;19.67;;;-2.50;99.90;;;;;;5094830;28;20445;-94
2021/01/16 06:27:48;;;;;;;34.47;21.53;;;-2.50;99.90;;;;;;5094676;28;20046;-93
2021/01/16 06:30:19;;;;;;;33.30;19.87;;;-2.50;99.90;;;;;;5096081;28;20048;-93
2021/01/16 06:32:55;;;;;;;35.03;20.87;;;-2.50;99.90;;;;;;5094523;28;20027;-93
2021/01/16 06:35:29;;;;;;;38.87;20.53;;;-2.50;99.90;;;;;;5094656;28;20381;-93
2021/01/16 06:37:54;;;;;;;32.43;20.57;;;-2.60;99.90;;;;;;5094601;28;20093;-94
2021/01/16 06:40:30;;;;;;;35.60;20.80;;;-2.50;99.90;;;;;;5094399;28;20427;-93
2021/01/16 06:42:57;;;;;;;32.83;20.17;;;-2.60;99.90;;;;;;5094415;28;20028;-94
2021/01/16 06:45:26;;;;;;;34.47;20.17;;;-2.60;99.90;;;;;;5094292;28;20024;-93
2021/01/16 06:47:57;;;;;;;32.03;19.43;;;-2.50;99.90;;;;;;5095576;28;20108;-93
2021/01/16 06:50:23;;;;;;;35.77;21.13;;;-2.40;99.90;;;;;;5094206;28;20425;-94
2021/01/16 06:52:48;;;;;;;33.47;20.17;;;-2.50;99.90;;;;;;5094409;28;20051;-93
2021/01/16 06:55:18;;;;;;;36.90;21.23;;;-2.50;99.90;;;;;;5093882;28;20028;-94
2021/01/16 06:57:44;;;;;;;35.70;21.60;;;-2.60;99.90;;;;;;5095317;28;20123;-93
2021/01/16 07:00:12;;;;;;;35.20;21.23;;;-2.60;99.90;;;;;;5095389;28;20027;-93
2021/01/16 07:02:39;;;;;;;35.87;22.13;;;-2.50;99.90;;;;;;5093684;28;20024;-93
2021/01/16 07:05:07;;;;;;;37.00;21.87;;;-2.50;99.90;;;;;;5094028;28;20024;-93
2021/01/16 07:07:34;;;;;;;37.60;21.53;;;-2.40;99.90;;;;;;5093973;28;20024;-94
2021/01/16 07:10:12;;;;;;;35.13;21.53;;;-2.50;99.90;;;;;;5094186;28;20016;-94
2021/01/16 07:12:49;;;;;;;36.17;21.63;;;-2.50;99.90;;;;;;5093881;28;20111;-94
2021/01/16 07:15:20;;;;;;;34.53;21.30;;;-2.50;99.90;;;;;;5092976;28;20028;-93
2021/01/16 07:17:46;;;;;;;37.70;21.37;;;-2.50;99.90;;;;;;5093863;28;20032;-93
2021/01/16 07:20:12;;;;;;;36.37;22.40;;;-2.50;99.90;;;;;;5093928;28;20024;-94
2021/01/16 07:22:43;;;;;;;38.17;23.03;;;-2.50;99.90;;;;;;5093640;28;20030;-94
2021/01/16 07:25:12;;;;;;;38.43;24.27;;;-2.50;99.90;;;;;;5093654;28;20016;-93
2021/01/16 07:27:39;;;;;;;36.50;22.57;;;-2.50;99.90;;;;;;5093657;28;20024;-95
2021/01/16 07:30:08;;;;;;;38.60;24.13;;;-2.50;99.90;;;;;;5093619;28;20123;-93
2021/01/16 07:32:44;;;;;;;39.77;23.27;;;-2.50;99.90;;;;;;5093375;28;20027;-93
2021/01/16 07:35:21;;;;;;;38.10;22.60;;;-2.50;99.90;;;;;;5093559;28;20032;-93
2021/01/16 07:37:50;;;;;;;37.17;23.30;;;-2.50;99.90;;;;;;5093466;28;20032;-94
2021/01/16 07:40:18;;;;;;;37.50;21.63;;;-2.40;99.90;;;;;;5093381;28;20032;-94
2021/01/16 07:42:51;;;;;;;37.53;22.67;;;-2.40;99.90;;;;;;5093515;28;20537;-94
2021/01/16 07:45:27;;;;;;;33.83;21.50;;;-2.40;99.90;;;;;;5093404;28;20028;-94
2021/01/16 07:47:59;;;;;;;38.40;22.80;;;-2.30;99.90;;;;;;5093290;28;20062;-93
2021/01/16 07:50:30;;;;;;;33.83;21.43;;;-2.30;99.90;;;;;;5093306;28;20059;-93
2021/01/16 07:53:00;;;;;;;35.37;21.23;;;-2.30;99.90;;;;;;5093143;28;20036;-94
2021/01/16 07:55:50;;;;;;;37.83;22.57;;;-2.30;99.90;;;;;;5093195;28;20039;-94
2021/01/16 07:58:31;;;;;;;36.33;21.77;;;-2.30;99.90;;;;;;5092815;28;20135;-94
2021/01/16 08:01:07;;;;;;;37.50;21.70;;;-2.30;99.90;;;;;;5092780;28;20032;-94
2021/01/16 08:03:53;;;;;;;35.60;21.67;;;-2.30;99.90;;;;;;5092943;28;20020;-93
2021/01/16 08:06:31;;;;;;;34.43;21.27;;;-2.30;99.90;;;;;;5093316;28;20119;-94
2021/01/16 08:09:04;;;;;;;35.30;21.37;;;-2.20;99.90;;;;;;5092843;28;20062;-93
2021/01/16 08:11:32;;;;;;;35.17;21.50;;;-2.30;99.90;;;;;;5092788;28;20055;-94
2021/01/16 08:14:06;;;;;;;32.40;21.17;;;-2.20;99.90;;;;;;5092869;28;20028;-93
2021/01/16 08:16:35;;;;;;;38.93;22.83;;;-2.10;99.90;;;;;;5092722;28;20043;-94
2021/01/16 08:19:14;;;;;;;35.00;21.37;;;-2.10;99.90;;;;;;5092802;28;20160;-94
2021/01/16 08:21:53;;;;;;;36.37;22.17;;;-2.00;99.90;;;;;;5092612;28;20032;-94
2021/01/16 08:24:20;;;;;;;34.70;21.70;;;-2.00;99.90;;;;;;5092635;28;20114;-93
2021/01/16 08:27:03;;;;;;;33.77;20.07;;;-2.00;99.90;;;;;;5096672;28;20464;-94
2021/01/16 08:29:31;;;;;;;36.37;21.47;;;-2.00;99.90;;;;;;5092945;28;20020;-93
2021/01/16 08:32:09;;;;;;;32.23;21.20;;;-2.10;99.90;;;;;;5092746;28;20496;-94
2021/01/16 08:35:05;;;;;;;32.37;20.13;;;-1.90;99.90;;;;;;5092467;28;20028;-94
2021/01/16 08:37:37;;;;;;;33.22;19.20;;;-1.90;99.90;;;;;;5092537;28;20074;-93
2021/01/16 08:40:10;;;;;;;31.47;19.60;;;-1.90;99.90;;;;;;5092687;28;20032;-93
2021/01/16 08:42:56;;;;;;;32.40;19.43;;;-1.80;99.90;;;;;;5092400;28;20031;-93
2021/01/16 08:45:22;;;;;;;30.77;18.87;;;-1.80;99.90;;;;;;5092505;28;20016;-93
2021/01/16 08:47:51;;;;;;;35.90;21.17;;;-1.80;99.90;;;;;;5092318;28;20012;-93
2021/01/16 08:50:18;;;;;;;33.40;19.67;;;-1.80;99.90;;;;;;5092489;28;20031;-93
2021/01/16 08:52:43;;;;;;;33.37;20.67;;;-1.80;99.90;;;;;;5092479;28;20116;-93
2021/01/16 08:55:09;;;;;;;31.50;18.93;;;-1.80;99.90;;;;;;5092500;28;20103;-93
2021/01/16 08:57:37;;;;;;;31.13;19.50;;;-1.80;99.90;;;;;;5093316;28;20055;-93
2021/01/16 09:00:20;;;;;;;31.33;19.93;;;-1.70;99.90;;;;;;5092285;28;20093;-93
2021/01/16 09:03:19;;;;;;;31.87;20.70;;;-1.70;99.90;;;;;;5076196;28;20039;-93
2021/01/16 09:05:47;;;;;;;30.77;18.87;;;-1.80;99.90;;;;;;5092330;28;20112;-94
2021/01/16 09:08:26;;;;;;;29.67;18.73;;;-1.60;99.90;;;;;;5092366;28;20022;-94
2021/01/16 09:10:54;;;;;;;31.47;18.70;;;-1.60;99.90;;;;;;5093571;28;20111;-95
2021/01/16 09:13:30;;;;;;;34.03;19.37;;;-1.50;99.90;;;;;;5092302;28;20027;-92
2021/01/16 09:15:57;;;;;;;30.93;18.80;;;-1.60;99.90;;;;;;5092273;28;20035;-92
2021/01/16 09:18:23;;;;;;;28.97;17.90;;;-1.50;99.90;;;;;;5094594;28;20453;-93
2021/01/16 09:20:52;;;;;;;31.03;19.73;;;-1.50;99.90;;;;;;5092052;28;20020;-92
2021/01/16 09:23:29;;;;;;;34.60;20.57;;;-1.50;99.90;;;;;;5092094;28;20039;-93
2021/01/16 09:26:03;;;;;;;31.23;19.03;;;-1.50;99.90;;;;;;5092059;28;20024;-93
2021/01/16 09:29:00;;;;;;;31.60;17.33;;;-1.50;99.90;;;;;;5092063;28;20024;-92
2021/01/16 09:31:42;;;;;;;29.57;18.90;;;-1.50;99.90;;;;;;5091953;28;20273;-93
2021/01/16 09:34:14;;;;;;;31.73;19.10;;;-1.70;99.90;;;;;;5092033;28;20118;-93
2021/01/16 09:37:00;;;;;;;31.57;19.73;;;-1.50;99.90;;;;;;5092052;28;20031;-93
2021/01/16 09:39:29;;;;;;;31.07;19.63;;;-1.50;99.90;;;;;;5095037;28;20159;-92
2021/01/16 09:41:57;;;;;;;35.70;20.97;;;-1.50;99.90;;;;;;5095701;28;20066;-93
2021/01/16 09:44:41;;;;;;;34.23;20.10;;;-1.50;99.90;;;;;;5095895;28;20381;-92
2021/01/16 09:47:27;;;;;;;30.60;19.47;;;-1.40;99.90;;;;;;5095812;28;20024;-93
2021/01/16 09:50:02;;;;;;;;;;;-1.30;99.90;;;;;;5095603;28;20039;-93
2021/01/16 09:52:31;;;;;;;32.20;19.43;;;-1.40;99.90;;;;;;5095699;28;19904;-93
2021/01/16 09:54:57;;;;;;;29.20;18.47;;;-1.30;99.90;;;;;;5096963;28;20021;-92
2021/01/16 09:57:43;;;;;;;30.93;19.27;;;-1.20;99.90;;;;;;5095303;28;20070;-92
2021/01/16 10:00:14;;;;;;;;;;;-1.20;99.90;;;;;;5095952;28;20020;-93
2021/01/16 10:02:45;;;;;;;29.53;17.80;;;-1.20;99.90;;;;;;5095496;28;19916;-92
2021/01/16 10:05:26;;;;;;;26.20;16.93;;;-1.10;99.90;;;;;;5096631;28;20029;-93
2021/01/16 10:07:53;;;;;;;30.10;17.73;;;-1.00;99.90;;;;;;5095393;28;20019;-92
2021/01/16 10:10:19;;;;;;;29.37;18.30;;;-1.20;99.90;;;;;;5095293;28;20073;-92
2021/01/16 10:12:46;;;;;;;27.20;17.50;;;-1.20;99.90;;;;;;5095272;28;20118;-93
2021/01/16 10:15:13;;;;;;;31.10;18.37;;;-1.10;99.90;;;;;;5095266;28;20025;-93
2021/01/16 10:17:50;;;;;;;28.87;18.60;;;-1.00;99.90;;;;;;5095260;28;20027;-93
2021/01/16 10:20:16;;;;;;;29.77;19.50;;;-0.90;99.90;;;;;;5096514;28;20028;-91
2021/01/16 10:22:54;;;;;;;28.43;18.10;;;-0.90;99.90;;;;;;5094826;28;20027;-92
2021/01/16 10:25:21;;;;;;;31.13;18.33;;;-0.90;99.90;;;;;;5094554;28;20418;-92
2021/01/16 10:27:52;;;;;;;27.30;17.83;;;-0.80;99.90;;;;;;5095347;28;20068;-80
2021/01/16 10:30:17;;;;;;;28.93;18.60;;;-0.70;99.90;;;;;;5096074;28;20023;-89
2021/01/16 10:32:44;;;;;;;30.80;18.80;;;-0.70;99.90;;;;;;5094764;28;20028;-89
2021/01/16 10:35:18;;;;;;;28.90;18.03;;;-0.80;99.90;;;;;;5096750;28;20020;-92
2021/01/16 10:37:43;;;;;;;27.33;17.33;;;-0.60;99.90;;;;;;5094643;28;20020;-89
2021/01/16 10:40:09;;;;;;;27.47;17.33;;;-0.60;99.90;;;;;;5095622;28;20081;-88
2021/01/16 10:42:44;;;;;;;27.43;18.43;;;-0.60;99.90;;;;;;5094027;28;20124;-78
2021/01/16 10:45:11;;;;;;;27.70;17.02;;;-0.60;99.90;;;;;;5095744;28;20458;-88
2021/01/16 10:47:40;;;;;;;25.23;15.80;;;-0.70;99.90;;;;;;5095489;28;20381;-87
2021/01/16 10:50:23;;;;;;;25.73;16.17;;;-0.50;99.90;;;;;;5094069;28;20533;-87
2021/01/16 10:53:00;;;;;;;23.70;15.23;;;-0.70;99.90;;;;;;5095106;28;20024;-90
2021/01/16 10:55:46;;;;;;;26.47;15.27;;;-0.60;99.90;;;;;;5093721;28;20437;-87
2021/01/16 10:58:20;;;;;;;26.07;16.17;;;-0.50;99.90;;;;;;5094908;28;20055;-87
2021/01/16 11:00:53;;;;;;;24.90;15.47;;;-0.70;99.90;;;;;;5095059;28;20039;-87
2021/01/16 11:03:18;;;;;;;26.10;15.73;;;-0.70;99.90;;;;;;5095023;28;20021;-87
2021/01/16 11:05:49;;;;;;;25.93;15.50;;;-0.70;99.90;;;;;;5093722;28;20082;-88
2021/01/16 11:08:25;;;;;;;24.03;14.50;;;-0.80;99.90;;;;;;5093562;28;20119;-87
2021/01/16 11:10:51;;;;;;;25.03;15.03;;;-0.80;99.90;;;;;;5095004;28;20034;-88
2021/01/16 11:13:22;;;;;;;21.03;13.20;;;-0.80;99.90;;;;;;5095045;28;20060;-88
2021/01/16 11:15:52;;;;;;;26.33;16.03;;;-0.80;99.90;;;;;;5094255;28;20441;-88
2021/01/16 11:18:28;;;;;;;28.37;17.00;;;-0.80;99.90;;;;;;5094732;28;20408;-87
2021/01/16 11:21:03;;;;;;;27.77;16.93;;;-0.90;99.90;;;;;;5093305;28;20032;-87
2021/01/16 11:24:06;;;;;;;24.83;15.68;;;-0.80;99.90;;;;;;5093764;28;20074;-87
2021/01/16 11:26:45;;;;;;;26.70;18.10;;;-0.70;99.90;;;;;;5092127;28;20041;-87
2021/01/16 11:29:19;;;;;;;26.23;16.73;;;-0.60;99.90;;;;;;5094863;28;20016;-87
2021/01/16 11:31:50;;;;;;;27.67;17.27;;;-0.50;99.90;;;;;;5093545;28;20565;-88
2021/01/16 11:34:21;;;;;;;26.23;17.00;;;-0.50;99.90;;;;;;5093444;28;20028;-87
2021/01/16 11:37:07;;;;;;;30.87;19.17;;;-0.30;99.90;;;;;;5094735;28;20373;-87
2021/01/16 11:39:42;;;;;;;25.77;16.70;;;-0.20;99.90;;;;;;5093110;28;20082;-87
2021/01/16 11:42:09;;;;;;;29.90;19.10;;;-0.20;99.90;;;;;;5093134;28;20115;-88
2021/01/16 11:44:52;;;;;;;30.57;18.40;;;-0.10;99.90;;;;;;5093156;28;20032;-88
2021/01/16 11:47:19;;;;;;;24.17;14.27;;;-0.10;99.90;;;;;;5094432;28;20477;-89
2021/01/16 11:49:45;;;;;;;26.43;17.00;;;-0.30;99.90;;;;;;5094385;28;20016;-88
2021/01/16 11:52:11;;;;;;;27.07;17.07;;;-0.20;99.90;;;;;;5094368;28;20027;-89
2021/01/16 11:54:37;;;;;;;29.57;17.53;;;-0.20;99.90;;;;;;5093005;28;20027;-89
2021/01/16 11:57:03;;;;;;;27.73;17.37;;;-0.20;99.90;;;;;;5094304;28;20040;-91
2021/01/16 11:59:30;;;;;;;29.80;18.37;;;-0.10;99.90;;;;;;5093069;28;20031;-90
2021/01/16 12:01:56;;;;;;;30.63;19.20;;;-0.20;99.90;;;;;;5094376;28;20035;-91
2021/01/16 12:04:22;;;;;;;30.00;17.70;;;0.00;99.90;;;;;;5093086;28;20115;-92
2021/01/16 12:06:50;;;;;;;28.33;18.00;;;0.00;99.90;;;;;;5094110;28;20032;-77
2021/01/16 12:09:16;;;;;;;31.53;18.00;;;0.20;99.90;;;;;;5092567;28;20431;-91
2021/01/16 12:11:52;;;;;;;27.30;16.60;;;0.10;99.90;;;;;;5092567;28;20032;-92
2021/01/16 12:14:17;;;;;;;27.03;16.23;;;0.00;99.90;;;;;;5094052;28;20024;-88
2021/01/16 12:16:45;;;;;;;24.53;15.10;;;0.00;99.90;;;;;;5093817;28;20474;-87
2021/01/16 12:19:14;;;;;;;26.80;16.63;;;0.00;99.90;;;;;;5093950;28;20115;-88
2021/01/16 12:21:45;;;;;;;26.20;16.13;;;-0.10;99.90;;;;;;5093818;28;20024;-88
2021/01/16 12:24:13;;;;;;;25.77;15.63;;;0.00;99.90;;;;;;5095116;28;20043;-89
2021/01/16 12:26:49;;;;;;;26.80;15.30;;;-0.10;99.90;;;;;;5099901;28;20437;-88
2021/01/16 12:29:23;;;;;;;25.40;15.93;;;0.00;99.90;;;;;;5104242;28;20054;-89
2021/01/16 12:32:10;;;;;;;29.30;17.47;;;-0.20;99.90;;;;;;5107736;28;20024;-89
2021/01/16 12:34:53;;;;;;;30.13;17.30;;;-0.20;99.90;;;;;;5100871;28;20110;-87
2021/01/16 12:37:30;;;;;;;27.43;16.40;;;-0.10;99.90;;;;;;5094001;28;20027;-90
2021/01/16 12:39:56;;;;;;;29.70;17.10;;;0.10;99.90;;;;;;5093527;28;20085;-86
2021/01/16 12:42:23;;;;;;;29.27;17.63;;;0.10;99.90;;;;;;5092422;28;20435;-89
2021/01/16 12:44:49;;;;;;;27.97;16.93;;;0.10;99.90;;;;;;5093417;28;20016;-90